sensor_id;sensor_type;location;lat;lon;timestamp;P1;durP1;ratioP1;P2;durP2;ratioP2
29550;SDS011;16488;52.396;10.696;2023-10-19T00:00:13;22.45;;;12.00;;
29550;SDS011;16488;52.396;10.696;2023-10-19T00:02:46;22.92;;;12.55;;
29550;SDS011;16488;52.396;10.696;2023-10-19T00:05:13;23.00;;;12.68;;
29550;SDS011;16488;52.396;10.696;2023-10-19T00:07:40;19.98;;;11.95;;
29550;SDS011;16488;52.396;10.696;2023-10-19T00:10:06;21.58;;;10.88;;
29550;SDS011;16488;52.396;10.696;2023-10-19T00:12:33;25.23;;;13.57;;
29550;SDS011;16488;52.396;10.696;2023-10-19T00:14:59;20.00;;;11.82;;
29550;SDS011;16488;52.396;10.696;2023-10-19T00:17:25;26.63;;;13.70;;
29550;SDS011;16488;52.396;10.696;2023-10-19T00:19:52;27.92;;;13.88;;
29550;SDS011;16488;52.396;10.696;2023-10-19T00:22:50;26.42;;;13.13;;
29550;SDS011;16488;52.396;10.696;2023-10-19T00:25:17;25.00;;;12.57;;
29550;SDS011;16488;52.396;10.696;2023-10-19T00:27:44;24.70;;;14.68;;
29550;SDS011;16488;52.396;10.696;2023-10-19T00:30:10;24.08;;;13.50;;
29550;SDS011;16488;52.396;10.696;2023-10-19T00:32:37;23.20;;;13.40;;
29550;SDS011;16488;52.396;10.696;2023-10-19T00:35:04;22.50;;;13.23;;
29550;SDS011;16488;52.396;10.696;2023-10-19T00:37:33;24.38;;;12.88;;
29550;SDS011;16488;52.396;10.696;2023-10-19T00:40:07;24.33;;;14.00;;
29550;SDS011;16488;52.396;10.696;2023-10-19T00:42:44;22.30;;;12.85;;
29550;SDS011;16488;52.396;10.696;2023-10-19T00:45:12;24.05;;;12.73;;
29550;SDS011;16488;52.396;10.696;2023-10-19T00:50:08;24.40;;;13.60;;
29550;SDS011;16488;52.396;10.696;2023-10-19T00:52:42;25.88;;;13.98;;
29550;SDS011;16488;52.396;10.696;2023-10-19T00:55:15;24.33;;;14.82;;
29550;SDS011;16488;52.396;10.696;2023-10-19T00:57:41;30.52;;;15.05;;
29550;SDS011;16488;52.396;10.696;2023-10-19T01:00:13;26.30;;;15.02;;
29550;SDS011;16488;52.396;10.696;2023-10-19T01:02:59;25.73;;;14.25;;
29550;SDS011;16488;52.396;10.696;2023-10-19T01:05:29;28.00;;;15.90;;
29550;SDS011;16488;52.396;10.696;2023-10-19T01:08:02;24.83;;;15.07;;
29550;SDS011;16488;52.396;10.696;2023-10-19T01:10:39;27.55;;;14.38;;
29550;SDS011;16488;52.396;10.696;2023-10-19T01:13:05;26.35;;;15.00;;
29550;SDS011;16488;52.396;10.696;2023-10-19T01:15:31;25.80;;;15.27;;
29550;SDS011;16488;52.396;10.696;2023-10-19T01:18:02;28.15;;;16.38;;
29550;SDS011;16488;52.396;10.696;2023-10-19T01:22:57;29.67;;;15.15;;
29550;SDS011;16488;52.396;10.696;2023-10-19T01:25:48;29.55;;;15.93;;
29550;SDS011;16488;52.396;10.696;2023-10-19T01:28:30;26.05;;;13.70;;
29550;SDS011;16488;52.396;10.696;2023-10-19T01:31:15;28.33;;;15.20;;
29550;SDS011;16488;52.396;10.696;2023-10-19T01:33:45;29.13;;;16.50;;
29550;SDS011;16488;52.396;10.696;2023-10-19T01:36:11;30.05;;;16.40;;
29550;SDS011;16488;52.396;10.696;2023-10-19T01:38:47;31.13;;;17.63;;
29550;SDS011;16488;52.396;10.696;2023-10-19T01:41:13;30.20;;;16.63;;
29550;SDS011;16488;52.396;10.696;2023-10-19T01:43:41;30.80;;;16.75;;
29550;SDS011;16488;52.396;10.696;2023-10-19T01:46:07;28.98;;;16.17;;
29550;SDS011;16488;52.396;10.696;2023-10-19T01:48:40;28.30;;;16.05;;
29550;SDS011;16488;52.396;10.696;2023-10-19T01:51:07;32.92;;;15.85;;
29550;SDS011;16488;52.396;10.696;2023-10-19T01:53:40;29.92;;;17.35;;
29550;SDS011;16488;52.396;10.696;2023-10-19T01:56:08;29.85;;;15.63;;
29550;SDS011;16488;52.396;10.696;2023-10-19T01:58:37;30.10;;;16.75;;
29550;SDS011;16488;52.396;10.696;2023-10-19T02:01:05;31.00;;;16.52;;
29550;SDS011;16488;52.396;10.696;2023-10-19T02:03:40;32.67;;;16.52;;
29550;SDS011;16488;52.396;10.696;2023-10-19T02:06:07;28.58;;;15.75;;
29550;SDS011;16488;52.396;10.696;2023-10-19T02:11:10;35.08;;;15.88;;
29550;SDS011;16488;52.396;10.696;2023-10-19T02:13:44;35.50;;;17.33;;
29550;SDS011;16488;52.396;10.696;2023-10-19T02:16:14;30.80;;;17.38;;
29550;SDS011;16488;52.396;10.696;2023-10-19T02:19:00;34.33;;;19.10;;
29550;SDS011;16488;52.396;10.696;2023-10-19T02:21:26;32.22;;;17.30;;
29550;SDS011;16488;52.396;10.696;2023-10-19T02:23:56;31.13;;;16.77;;
29550;SDS011;16488;52.396;10.696;2023-10-19T02:26:22;30.60;;;17.33;;
29550;SDS011;16488;52.396;10.696;2023-10-19T02:28:51;32.17;;;17.60;;
29550;SDS011;16488;52.396;10.696;2023-10-19T02:31:17;34.80;;;18.85;;
29550;SDS011;16488;52.396;10.696;2023-10-19T02:33:45;30.48;;;16.52;;
29550;SDS011;16488;52.396;10.696;2023-10-19T02:36:12;32.67;;;17.20;;
29550;SDS011;16488;52.396;10.696;2023-10-19T02:38:41;35.65;;;18.55;;
29550;SDS011;16488;52.396;10.696;2023-10-19T02:41:09;31.17;;;18.02;;
29550;SDS011;16488;52.396;10.696;2023-10-19T02:43:36;37.80;;;19.02;;
29550;SDS011;16488;52.396;10.696;2023-10-19T02:46:02;30.23;;;17.30;;
29550;SDS011;16488;52.396;10.696;2023-10-19T02:48:28;35.05;;;18.45;;
29550;SDS011;16488;52.396;10.696;2023-10-19T02:50:55;36.80;;;19.00;;
29550;SDS011;16488;52.396;10.696;2023-10-19T02:53:30;39.75;;;19.02;;
29550;SDS011;16488;52.396;10.696;2023-10-19T02:55:56;34.38;;;19.27;;
29550;SDS011;16488;52.396;10.696;2023-10-19T02:58:26;34.28;;;18.15;;
29550;SDS011;16488;52.396;10.696;2023-10-19T03:00:53;33.75;;;18.17;;
29550;SDS011;16488;52.396;10.696;2023-10-19T03:03:20;38.17;;;18.40;;
29550;SDS011;16488;52.396;10.696;2023-10-19T03:05:46;34.40;;;19.75;;
29550;SDS011;16488;52.396;10.696;2023-10-19T03:08:12;34.70;;;19.38;;
29550;SDS011;16488;52.396;10.696;2023-10-19T03:10:40;31.92;;;18.98;;
29550;SDS011;16488;52.396;10.696;2023-10-19T03:13:09;34.17;;;18.70;;
29550;SDS011;16488;52.396;10.696;2023-10-19T03:15:39;34.63;;;19.20;;
29550;SDS011;16488;52.396;10.696;2023-10-19T03:18:08;34.40;;;20.70;;
29550;SDS011;16488;52.396;10.696;2023-10-19T03:20:37;38.35;;;19.20;;
29550;SDS011;16488;52.396;10.696;2023-10-19T03:23:03;41.10;;;20.42;;
29550;SDS011;16488;52.396;10.696;2023-10-19T03:25:30;38.50;;;20.63;;
29550;SDS011;16488;52.396;10.696;2023-10-19T03:28:34;45.13;;;20.42;;
29550;SDS011;16488;52.396;10.696;2023-10-19T03:31:00;32.97;;;19.13;;
29550;SDS011;16488;52.396;10.696;2023-10-19T03:33:26;41.85;;;21.80;;
29550;SDS011;16488;52.396;10.696;2023-10-19T03:35:53;38.03;;;20.90;;
29550;SDS011;16488;52.396;10.696;2023-10-19T03:38:19;41.88;;;20.77;;
29550;SDS011;16488;52.396;10.696;2023-10-19T03:40:47;40.35;;;22.13;;
29550;SDS011;16488;52.396;10.696;2023-10-19T03:43:17;44.30;;;21.02;;
29550;SDS011;16488;52.396;10.696;2023-10-19T03:45:47;37.65;;;19.98;;
29550;SDS011;16488;52.396;10.696;2023-10-19T03:48:17;42.38;;;21.30;;
29550;SDS011;16488;52.396;10.696;2023-10-19T03:50:49;43.90;;;21.13;;
29550;SDS011;16488;52.396;10.696;2023-10-19T03:53:17;50.88;;;22.05;;
29550;SDS011;16488;52.396;10.696;2023-10-19T03:58:09;40.85;;;21.92;;
29550;SDS011;16488;52.396;10.696;2023-10-19T04:00:37;43.45;;;21.55;;
29550;SDS011;16488;52.396;10.696;2023-10-19T04:03:03;48.40;;;22.80;;
29550;SDS011;16488;52.396;10.696;2023-10-19T04:05:29;46.05;;;22.75;;
29550;SDS011;16488;52.396;10.696;2023-10-19T04:07:56;40.28;;;21.42;;
29550;SDS011;16488;52.396;10.696;2023-10-19T04:10:24;44.00;;;22.52;;
29550;SDS011;16488;52.396;10.696;2023-10-19T04:12:59;39.65;;;22.08;;
29550;SDS011;16488;52.396;10.696;2023-10-19T04:15:26;44.95;;;21.25;;
29550;SDS011;16488;52.396;10.696;2023-10-19T04:20:20;41.47;;;22.70;;
29550;SDS011;16488;52.396;10.696;2023-10-19T04:25:36;44.33;;;21.23;;
29550;SDS011;16488;52.396;10.696;2023-10-19T04:28:02;41.55;;;20.80;;
29550;SDS011;16488;52.396;10.696;2023-10-19T04:30:30;38.22;;;21.75;;
29550;SDS011;16488;52.396;10.696;2023-10-19T04:32:58;47.28;;;23.83;;
29550;SDS011;16488;52.396;10.696;2023-10-19T04:35:26;42.60;;;22.90;;
29550;SDS011;16488;52.396;10.696;2023-10-19T04:37:57;44.72;;;22.35;;
29550;SDS011;16488;52.396;10.696;2023-10-19T04:40:24;41.50;;;22.48;;
29550;SDS011;16488;52.396;10.696;2023-10-19T04:42:51;41.38;;;21.65;;
29550;SDS011;16488;52.396;10.696;2023-10-19T04:45:18;46.45;;;22.58;;
29550;SDS011;16488;52.396;10.696;2023-10-19T04:47:44;44.17;;;22.58;;
29550;SDS011;16488;52.396;10.696;2023-10-19T04:50:11;46.53;;;22.95;;
29550;SDS011;16488;52.396;10.696;2023-10-19T04:55:03;41.78;;;23.23;;
29550;SDS011;16488;52.396;10.696;2023-10-19T04:59:56;40.85;;;21.40;;
29550;SDS011;16488;52.396;10.696;2023-10-19T05:02:22;41.47;;;21.48;;
29550;SDS011;16488;52.396;10.696;2023-10-19T05:07:14;41.63;;;22.67;;
29550;SDS011;16488;52.396;10.696;2023-10-19T05:09:43;46.10;;;22.20;;
29550;SDS011;16488;52.396;10.696;2023-10-19T05:12:10;43.03;;;21.23;;
29550;SDS011;16488;52.396;10.696;2023-10-19T05:14:36;45.95;;;21.98;;
29550;SDS011;16488;52.396;10.696;2023-10-19T05:17:02;41.13;;;22.33;;
29550;SDS011;16488;52.396;10.696;2023-10-19T05:19:32;38.40;;;20.63;;
29550;SDS011;16488;52.396;10.696;2023-10-19T05:24:24;42.03;;;21.33;;
29550;SDS011;16488;52.396;10.696;2023-10-19T05:26:51;43.15;;;22.50;;
29550;SDS011;16488;52.396;10.696;2023-10-19T05:29:18;42.95;;;23.02;;
29550;SDS011;16488;52.396;10.696;2023-10-19T05:31:44;45.85;;;23.63;;
29550;SDS011;16488;52.396;10.696;2023-10-19T05:34:10;37.40;;;21.58;;
29550;SDS011;16488;52.396;10.696;2023-10-19T05:36:36;43.67;;;22.05;;
29550;SDS011;16488;52.396;10.696;2023-10-19T05:39:04;48.75;;;22.15;;
29550;SDS011;16488;52.396;10.696;2023-10-19T05:41:32;41.83;;;20.90;;
29550;SDS011;16488;52.396;10.696;2023-10-19T05:44:03;37.78;;;20.15;;
29550;SDS011;16488;52.396;10.696;2023-10-19T05:46:29;41.30;;;21.85;;
29550;SDS011;16488;52.396;10.696;2023-10-19T05:48:56;45.28;;;21.50;;
29550;SDS011;16488;52.396;10.696;2023-10-19T05:51:22;36.67;;;20.80;;
29550;SDS011;16488;52.396;10.696;2023-10-19T05:53:49;41.70;;;21.45;;
29550;SDS011;16488;52.396;10.696;2023-10-19T05:56:15;37.50;;;20.48;;
29550;SDS011;16488;52.396;10.696;2023-10-19T05:58:42;41.17;;;21.95;;
29550;SDS011;16488;52.396;10.696;2023-10-19T06:01:09;38.70;;;21.10;;
29550;SDS011;16488;52.396;10.696;2023-10-19T06:03:35;35.33;;;21.08;;
29550;SDS011;16488;52.396;10.696;2023-10-19T06:06:03;50.40;;;23.08;;
29550;SDS011;16488;52.396;10.696;2023-10-19T06:08:29;40.13;;;20.90;;
29550;SDS011;16488;52.396;10.696;2023-10-19T06:10:56;43.63;;;22.52;;
29550;SDS011;16488;52.396;10.696;2023-10-19T06:13:22;46.22;;;21.95;;
29550;SDS011;16488;52.396;10.696;2023-10-19T06:15:48;40.65;;;22.63;;
29550;SDS011;16488;52.396;10.696;2023-10-19T06:18:14;50.60;;;24.50;;
29550;SDS011;16488;52.396;10.696;2023-10-19T06:20:43;39.47;;;21.10;;
29550;SDS011;16488;52.396;10.696;2023-10-19T06:23:09;46.58;;;23.50;;
29550;SDS011;16488;52.396;10.696;2023-10-19T06:25:36;42.90;;;22.20;;
29550;SDS011;16488;52.396;10.696;2023-10-19T06:28:03;41.22;;;22.65;;
29550;SDS011;16488;52.396;10.696;2023-10-19T06:30:30;41.33;;;21.77;;
29550;SDS011;16488;52.396;10.696;2023-10-19T06:35:24;43.30;;;22.08;;
29550;SDS011;16488;52.396;10.696;2023-10-19T06:37:50;49.88;;;24.05;;
29550;SDS011;16488;52.396;10.696;2023-10-19T06:40:18;40.78;;;21.42;;
29550;SDS011;16488;52.396;10.696;2023-10-19T06:42:45;41.95;;;23.13;;
29550;SDS011;16488;52.396;10.696;2023-10-19T06:45:12;42.08;;;22.75;;
29550;SDS011;16488;52.396;10.696;2023-10-19T06:47:41;44.72;;;22.15;;
29550;SDS011;16488;52.396;10.696;2023-10-19T06:50:08;42.38;;;23.23;;
29550;SDS011;16488;52.396;10.696;2023-10-19T06:52:35;41.53;;;22.35;;
29550;SDS011;16488;52.396;10.696;2023-10-19T06:55:03;41.78;;;21.35;;
29550;SDS011;16488;52.396;10.696;2023-10-19T06:57:29;40.30;;;20.58;;
29550;SDS011;16488;52.396;10.696;2023-10-19T06:59:56;39.05;;;21.70;;
29550;SDS011;16488;52.396;10.696;2023-10-19T07:04:48;41.10;;;21.65;;
29550;SDS011;16488;52.396;10.696;2023-10-19T07:07:14;34.55;;;20.55;;
29550;SDS011;16488;52.396;10.696;2023-10-19T07:09:40;41.40;;;21.65;;
29550;SDS011;16488;52.396;10.696;2023-10-19T07:12:07;41.25;;;22.30;;
29550;SDS011;16488;52.396;10.696;2023-10-19T07:16:59;36.67;;;20.33;;
29550;SDS011;16488;52.396;10.696;2023-10-19T07:19:25;31.20;;;18.88;;
29550;SDS011;16488;52.396;10.696;2023-10-19T07:21:51;33.15;;;19.60;;
29550;SDS011;16488;52.396;10.696;2023-10-19T07:24:25;34.75;;;19.90;;
29550;SDS011;16488;52.396;10.696;2023-10-19T07:26:51;34.08;;;18.52;;
29550;SDS011;16488;52.396;10.696;2023-10-19T07:29:30;30.73;;;17.40;;
29550;SDS011;16488;52.396;10.696;2023-10-19T07:31:56;30.33;;;17.27;;
29550;SDS011;16488;52.396;10.696;2023-10-19T07:34:23;28.02;;;17.20;;
29550;SDS011;16488;52.396;10.696;2023-10-19T07:36:53;30.38;;;17.25;;
29550;SDS011;16488;52.396;10.696;2023-10-19T07:39:19;31.05;;;18.02;;
29550;SDS011;16488;52.396;10.696;2023-10-19T07:41:47;34.63;;;18.00;;
29550;SDS011;16488;52.396;10.696;2023-10-19T07:44:13;31.50;;;17.45;;
29550;SDS011;16488;52.396;10.696;2023-10-19T07:46:40;32.83;;;16.65;;
29550;SDS011;16488;52.396;10.696;2023-10-19T07:49:06;32.70;;;18.17;;
29550;SDS011;16488;52.396;10.696;2023-10-19T07:51:33;29.70;;;15.95;;
29550;SDS011;16488;52.396;10.696;2023-10-19T07:56:25;30.20;;;16.38;;
29550;SDS011;16488;52.396;10.696;2023-10-19T07:58:52;26.38;;;14.60;;
29550;SDS011;16488;52.396;10.696;2023-10-19T08:01:18;32.70;;;15.43;;
29550;SDS011;16488;52.396;10.696;2023-10-19T08:03:44;27.73;;;16.45;;
29550;SDS011;16488;52.396;10.696;2023-10-19T08:06:10;26.63;;;15.13;;
29550;SDS011;16488;52.396;10.696;2023-10-19T08:08:37;29.25;;;16.73;;
29550;SDS011;16488;52.396;10.696;2023-10-19T08:11:03;29.13;;;16.45;;
29550;SDS011;16488;52.396;10.696;2023-10-19T08:13:29;28.85;;;15.13;;
29550;SDS011;16488;52.396;10.696;2023-10-19T08:15:57;25.48;;;15.23;;
29550;SDS011;16488;52.396;10.696;2023-10-19T08:18:23;27.65;;;16.25;;
29550;SDS011;16488;52.396;10.696;2023-10-19T08:20:49;30.38;;;16.35;;
29550;SDS011;16488;52.396;10.696;2023-10-19T08:23:15;33.40;;;16.48;;
29550;SDS011;16488;52.396;10.696;2023-10-19T08:25:48;26.40;;;14.80;;
29550;SDS011;16488;52.396;10.696;2023-10-19T08:28:16;27.83;;;15.35;;
29550;SDS011;16488;52.396;10.696;2023-10-19T08:30:42;27.88;;;14.95;;
29550;SDS011;16488;52.396;10.696;2023-10-19T08:33:10;23.08;;;14.40;;
29550;SDS011;16488;52.396;10.696;2023-10-19T08:35:38;23.02;;;14.70;;
29550;SDS011;16488;52.396;10.696;2023-10-19T08:38:04;23.80;;;15.00;;
29550;SDS011;16488;52.396;10.696;2023-10-19T08:40:36;27.60;;;15.77;;
29550;SDS011;16488;52.396;10.696;2023-10-19T08:43:03;21.45;;;13.25;;
29550;SDS011;16488;52.396;10.696;2023-10-19T08:45:29;19.90;;;12.20;;
29550;SDS011;16488;52.396;10.696;2023-10-19T08:47:56;26.75;;;12.93;;
29550;SDS011;16488;52.396;10.696;2023-10-19T08:50:26;22.52;;;13.63;;
29550;SDS011;16488;52.396;10.696;2023-10-19T08:52:53;22.38;;;12.18;;
29550;SDS011;16488;52.396;10.696;2023-10-19T08:55:20;21.08;;;12.43;;
29550;SDS011;16488;52.396;10.696;2023-10-19T08:57:47;21.77;;;12.02;;
29550;SDS011;16488;52.396;10.696;2023-10-19T09:00:14;23.23;;;12.82;;
29550;SDS011;16488;52.396;10.696;2023-10-19T09:02:46;22.20;;;12.48;;
29550;SDS011;16488;52.396;10.696;2023-10-19T09:05:13;22.35;;;13.48;;
29550;SDS011;16488;52.396;10.696;2023-10-19T09:07:47;21.38;;;12.65;;
29550;SDS011;16488;52.396;10.696;2023-10-19T09:10:19;18.63;;;11.73;;
29550;SDS011;16488;52.396;10.696;2023-10-19T09:12:57;18.90;;;12.30;;
29550;SDS011;16488;52.396;10.696;2023-10-19T09:15:24;21.10;;;11.68;;
29550;SDS011;16488;52.396;10.696;2023-10-19T09:17:51;18.05;;;11.57;;
29550;SDS011;16488;52.396;10.696;2023-10-19T09:20:19;18.60;;;11.60;;
29550;SDS011;16488;52.396;10.696;2023-10-19T09:22:52;18.80;;;11.35;;
29550;SDS011;16488;52.396;10.696;2023-10-19T09:25:18;18.48;;;11.60;;
29550;SDS011;16488;52.396;10.696;2023-10-19T09:27:44;18.30;;;10.68;;
29550;SDS011;16488;52.396;10.696;2023-10-19T09:30:11;19.05;;;11.48;;
29550;SDS011;16488;52.396;10.696;2023-10-19T09:32:39;22.88;;;12.57;;
29550;SDS011;16488;52.396;10.696;2023-10-19T09:35:05;21.15;;;12.13;;
29550;SDS011;16488;52.396;10.696;2023-10-19T09:37:33;20.35;;;12.32;;
29550;SDS011;16488;52.396;10.696;2023-10-19T09:40:00;19.85;;;12.25;;
29550;SDS011;16488;52.396;10.696;2023-10-19T09:42:26;21.00;;;12.25;;
29550;SDS011;16488;52.396;10.696;2023-10-19T09:44:55;19.40;;;12.02;;
29550;SDS011;16488;52.396;10.696;2023-10-19T09:47:27;22.27;;;11.43;;
29550;SDS011;16488;52.396;10.696;2023-10-19T09:50:00;23.73;;;13.68;;
29550;SDS011;16488;52.396;10.696;2023-10-19T09:52:26;20.25;;;11.90;;
29550;SDS011;16488;52.396;10.696;2023-10-19T09:54:54;20.02;;;12.00;;
29550;SDS011;16488;52.396;10.696;2023-10-19T09:57:27;24.48;;;13.55;;
29550;SDS011;16488;52.396;10.696;2023-10-19T10:00:02;23.33;;;13.43;;
29550;SDS011;16488;52.396;10.696;2023-10-19T10:02:43;24.48;;;14.93;;
29550;SDS011;16488;52.396;10.696;2023-10-19T10:05:44;28.25;;;13.98;;
29550;SDS011;16488;52.396;10.696;2023-10-19T10:10:45;28.27;;;15.73;;
29550;SDS011;16488;52.396;10.696;2023-10-19T10:15:54;26.77;;;14.93;;
29550;SDS011;16488;52.396;10.696;2023-10-19T10:18:23;28.23;;;14.93;;
29550;SDS011;16488;52.396;10.696;2023-10-19T10:23:31;27.42;;;15.00;;
29550;SDS011;16488;52.396;10.696;2023-10-19T10:25:57;26.92;;;15.23;;
29550;SDS011;16488;52.396;10.696;2023-10-19T10:31:08;29.45;;;15.52;;
29550;SDS011;16488;52.396;10.696;2023-10-19T10:33:41;30.98;;;16.10;;
29550;SDS011;16488;52.396;10.696;2023-10-19T10:36:07;29.60;;;16.90;;
29550;SDS011;16488;52.396;10.696;2023-10-19T10:38:35;28.92;;;16.92;;
29550;SDS011;16488;52.396;10.696;2023-10-19T10:41:01;29.23;;;16.50;;
29550;SDS011;16488;52.396;10.696;2023-10-19T10:43:27;31.02;;;16.90;;
29550;SDS011;16488;52.396;10.696;2023-10-19T10:46:02;37.72;;;18.50;;
29550;SDS011;16488;52.396;10.696;2023-10-19T10:48:28;34.50;;;18.15;;
29550;SDS011;16488;52.396;10.696;2023-10-19T10:50:54;34.92;;;17.55;;
29550;SDS011;16488;52.396;10.696;2023-10-19T10:53:20;32.53;;;18.13;;
29550;SDS011;16488;52.396;10.696;2023-10-19T10:55:51;34.83;;;19.08;;
29550;SDS011;16488;52.396;10.696;2023-10-19T10:58:18;35.33;;;19.10;;
29550;SDS011;16488;52.396;10.696;2023-10-19T11:03:16;35.55;;;19.27;;
29550;SDS011;16488;52.396;10.696;2023-10-19T11:05:43;35.35;;;18.25;;
29550;SDS011;16488;52.396;10.696;2023-10-19T11:08:14;32.13;;;17.80;;
29550;SDS011;16488;52.396;10.696;2023-10-19T11:10:46;34.88;;;20.05;;
29550;SDS011;16488;52.396;10.696;2023-10-19T11:13:24;37.90;;;18.45;;
29550;SDS011;16488;52.396;10.696;2023-10-19T11:15:51;36.85;;;19.63;;
29550;SDS011;16488;52.396;10.696;2023-10-19T11:18:31;36.55;;;19.90;;
29550;SDS011;16488;52.396;10.696;2023-10-19T11:20:58;39.13;;;20.42;;
29550;SDS011;16488;52.396;10.696;2023-10-19T11:23:44;37.95;;;20.75;;
29550;SDS011;16488;52.396;10.696;2023-10-19T11:26:21;38.97;;;18.50;;
29550;SDS011;16488;52.396;10.696;2023-10-19T11:28:56;35.65;;;19.77;;
29550;SDS011;16488;52.396;10.696;2023-10-19T11:31:23;34.88;;;18.55;;
29550;SDS011;16488;52.396;10.696;2023-10-19T11:33:53;37.45;;;19.30;;
29550;SDS011;16488;52.396;10.696;2023-10-19T11:36:33;45.38;;;22.75;;
29550;SDS011;16488;52.396;10.696;2023-10-19T11:39:02;41.10;;;22.50;;
29550;SDS011;16488;52.396;10.696;2023-10-19T11:41:33;37.90;;;20.08;;
29550;SDS011;16488;52.396;10.696;2023-10-19T11:44:03;42.85;;;20.88;;
29550;SDS011;16488;52.396;10.696;2023-10-19T11:46:54;45.22;;;23.25;;
29550;SDS011;16488;52.396;10.696;2023-10-19T11:49:20;47.85;;;23.15;;
29550;SDS011;16488;52.396;10.696;2023-10-19T11:51:51;48.75;;;25.02;;
29550;SDS011;16488;52.396;10.696;2023-10-19T11:54:20;41.72;;;23.77;;
29550;SDS011;16488;52.396;10.696;2023-10-19T11:56:50;54.67;;;25.38;;
29550;SDS011;16488;52.396;10.696;2023-10-19T11:59:21;51.10;;;24.90;;
29550;SDS011;16488;52.396;10.696;2023-10-19T12:01:53;51.78;;;26.65;;
29550;SDS011;16488;52.396;10.696;2023-10-19T12:04:19;50.25;;;27.23;;
29550;SDS011;16488;52.396;10.696;2023-10-19T12:06:45;49.33;;;26.42;;
29550;SDS011;16488;52.396;10.696;2023-10-19T12:09:11;57.22;;;27.52;;
29550;SDS011;16488;52.396;10.696;2023-10-19T12:11:41;57.88;;;28.00;;
29550;SDS011;16488;52.396;10.696;2023-10-19T12:14:07;54.20;;;27.25;;
29550;SDS011;16488;52.396;10.696;2023-10-19T12:16:37;52.53;;;25.52;;
29550;SDS011;16488;52.396;10.696;2023-10-19T12:19:04;50.92;;;25.95;;
29550;SDS011;16488;52.396;10.696;2023-10-19T12:21:30;52.65;;;26.52;;
29550;SDS011;16488;52.396;10.696;2023-10-19T12:23:56;63.15;;;27.65;;
29550;SDS011;16488;52.396;10.696;2023-10-19T12:26:24;60.97;;;28.27;;
29550;SDS011;16488;52.396;10.696;2023-10-19T12:28:50;57.53;;;27.80;;
29550;SDS011;16488;52.396;10.696;2023-10-19T12:31:16;56.97;;;27.83;;
29550;SDS011;16488;52.396;10.696;2023-10-19T12:33:47;63.70;;;29.30;;
29550;SDS011;16488;52.396;10.696;2023-10-19T12:36:13;61.25;;;30.27;;
29550;SDS011;16488;52.396;10.696;2023-10-19T12:38:57;59.33;;;27.17;;
29550;SDS011;16488;52.396;10.696;2023-10-19T12:43:50;57.60;;;26.58;;
29550;SDS011;16488;52.396;10.696;2023-10-19T12:46:34;56.75;;;26.60;;
29550;SDS011;16488;52.396;10.696;2023-10-19T12:49:06;59.15;;;28.67;;
29550;SDS011;16488;52.396;10.696;2023-10-19T12:51:41;60.08;;;27.63;;
29550;SDS011;16488;52.396;10.696;2023-10-19T12:54:07;65.78;;;27.70;;
29550;SDS011;16488;52.396;10.696;2023-10-19T12:56:35;59.55;;;27.73;;
29550;SDS011;16488;52.396;10.696;2023-10-19T12:59:04;67.75;;;29.40;;
29550;SDS011;16488;52.396;10.696;2023-10-19T13:01:33;64.93;;;29.92;;
29550;SDS011;16488;52.396;10.696;2023-10-19T13:04:00;64.70;;;28.50;;
29550;SDS011;16488;52.396;10.696;2023-10-19T13:06:30;64.93;;;30.13;;
29550;SDS011;16488;52.396;10.696;2023-10-19T13:11:22;62.05;;;28.33;;
29550;SDS011;16488;52.396;10.696;2023-10-19T13:13:48;65.15;;;29.95;;
29550;SDS011;16488;52.396;10.696;2023-10-19T13:16:14;65.45;;;30.60;;
29550;SDS011;16488;52.396;10.696;2023-10-19T13:21:06;67.68;;;28.83;;
29550;SDS011;16488;52.396;10.696;2023-10-19T13:23:40;78.35;;;31.80;;
29550;SDS011;16488;52.396;10.696;2023-10-19T13:26:09;72.30;;;32.03;;
29550;SDS011;16488;52.396;10.696;2023-10-19T13:28:43;71.90;;;31.33;;
29550;SDS011;16488;52.396;10.696;2023-10-19T13:31:09;69.47;;;31.17;;
29550;SDS011;16488;52.396;10.696;2023-10-19T13:33:35;71.72;;;30.05;;
29550;SDS011;16488;52.396;10.696;2023-10-19T13:38:27;71.18;;;31.67;;
29550;SDS011;16488;52.396;10.696;2023-10-19T13:40:53;66.93;;;29.33;;
29550;SDS011;16488;52.396;10.696;2023-10-19T13:43:19;74.30;;;30.33;;
29550;SDS011;16488;52.396;10.696;2023-10-19T13:45:47;73.43;;;31.52;;
29550;SDS011;16488;52.396;10.696;2023-10-19T13:48:13;70.90;;;30.33;;
29550;SDS011;16488;52.396;10.696;2023-10-19T13:53:05;67.07;;;26.42;;
29550;SDS011;16488;52.396;10.696;2023-10-19T13:55:31;66.15;;;26.83;;
29550;SDS011;16488;52.396;10.696;2023-10-19T13:57:58;65.70;;;29.75;;
29550;SDS011;16488;52.396;10.696;2023-10-19T14:00:24;74.25;;;31.65;;
29550;SDS011;16488;52.396;10.696;2023-10-19T14:02:55;73.50;;;30.13;;
29550;SDS011;16488;52.396;10.696;2023-10-19T14:05:22;74.45;;;30.20;;
29550;SDS011;16488;52.396;10.696;2023-10-19T14:07:51;68.07;;;28.10;;
29550;SDS011;16488;52.396;10.696;2023-10-19T14:10:17;68.18;;;28.38;;
29550;SDS011;16488;52.396;10.696;2023-10-19T14:12:47;76.00;;;31.02;;
29550;SDS011;16488;52.396;10.696;2023-10-19T14:15:17;75.07;;;29.75;;
29550;SDS011;16488;52.396;10.696;2023-10-19T14:17:44;74.40;;;29.08;;
29550;SDS011;16488;52.396;10.696;2023-10-19T14:20:11;67.25;;;30.65;;
29550;SDS011;16488;52.396;10.696;2023-10-19T14:25:09;79.00;;;30.15;;
29550;SDS011;16488;52.396;10.696;2023-10-19T14:27:39;71.97;;;30.95;;
29550;SDS011;16488;52.396;10.696;2023-10-19T14:30:05;68.45;;;29.98;;
29550;SDS011;16488;52.396;10.696;2023-10-19T14:34:57;76.05;;;31.33;;
29550;SDS011;16488;52.396;10.696;2023-10-19T14:37:24;77.07;;;31.05;;
29550;SDS011;16488;52.396;10.696;2023-10-19T14:39:50;72.25;;;30.52;;
29550;SDS011;16488;52.396;10.696;2023-10-19T14:44:42;77.22;;;30.85;;
29550;SDS011;16488;52.396;10.696;2023-10-19T14:47:08;73.47;;;29.20;;
29550;SDS011;16488;52.396;10.696;2023-10-19T14:49:34;75.35;;;29.30;;
29550;SDS011;16488;52.396;10.696;2023-10-19T14:52:00;77.70;;;30.98;;
29550;SDS011;16488;52.396;10.696;2023-10-19T14:54:26;80.25;;;28.25;;
29550;SDS011;16488;52.396;10.696;2023-10-19T14:56:53;79.45;;;31.92;;
29550;SDS011;16488;52.396;10.696;2023-10-19T14:59:21;69.25;;;29.80;;
29550;SDS011;16488;52.396;10.696;2023-10-19T15:01:47;78.53;;;30.83;;
29550;SDS011;16488;52.396;10.696;2023-10-19T15:04:13;79.35;;;31.45;;
29550;SDS011;16488;52.396;10.696;2023-10-19T15:06:39;82.40;;;31.42;;
29550;SDS011;16488;52.396;10.696;2023-10-19T15:09:05;81.70;;;28.98;;
29550;SDS011;16488;52.396;10.696;2023-10-19T15:11:39;79.78;;;30.48;;
29550;SDS011;16488;52.396;10.696;2023-10-19T15:14:05;76.32;;;32.25;;
29550;SDS011;16488;52.396;10.696;2023-10-19T15:16:31;78.97;;;32.55;;
29550;SDS011;16488;52.396;10.696;2023-10-19T15:18:57;72.70;;;29.65;;
29550;SDS011;16488;52.396;10.696;2023-10-19T15:21:23;78.38;;;30.13;;
29550;SDS011;16488;52.396;10.696;2023-10-19T15:23:49;62.10;;;27.05;;